Observation data for Amherst on 01/19/2019      Previous  Date  Next       Current Mesonet Observations  Soil Data  Daily Summary Page  Observations in Plain Language
KAMH 190600Z 33022G27KT 01/M02 A3008 RMK A01 T00071015  RH  086%=      5-min Rain = 0
KAMH 190605Z 33023G29KT 01/M02 A3008 RMK A01 T00061016  RH  086%=      5-min Rain = 0
KAMH 190610Z 33023G31KT 01/M02 A3009 RMK A01 T00061017  RH  085%=      5-min Rain = 0
KAMH 190615Z 34025G31KT 01/M02 A3009 RMK A01 T00071019  RH  083%=      5-min Rain = 0
KAMH 190620Z 33024G29KT 01/M02 A3009 RMK A01 T00061020  RH  083%=      5-min Rain = 0
KAMH 190625Z 33023G28KT 01/M02 A301 RMK A01 T00051020  RH  084%=      5-min Rain = 0
KAMH 190630Z 33023G28KT 01/M02 A301 RMK A01 T00051021  RH  084%=      5-min Rain = 0
KAMH 190635Z 33020G25KT 00/M02 A3009 RMK A01 T00041020  RH  084%=      5-min Rain = 0
KAMH 190640Z 33018G24KT 00/M02 A301 RMK A01 T00031020  RH  085%=      5-min Rain = 0
KAMH 190645Z 33018G23KT 00/M02 A301 RMK A01 T00021018  RH  087%=      5-min Rain = 0
KAMH 190650Z 33023G29KT 00/M02 A301 RMK A01 T00041019  RH  085%=      5-min Rain = 0
KAMH 190655Z 33027G34KT 00/M02 A301 RMK A01 T00041022  RH  083%=      5-min Rain = 0
KAMH 190700Z 33025G31KT 00/M02 A301 RMK A01 T00031024  RH  083%=      5-min Rain = 0
KAMH 190705Z 33022G29KT 00/M02 A301 RMK A01 T00031023  RH  084%=      5-min Rain = 0
KAMH 190710Z 33024KT 00/M02 A301 RMK A01 T00021023  RH  084%=      5-min Rain = 0
KAMH 190715Z 33022G27KT 00/M02 A301 RMK A01 T00011023  RH  084%=      5-min Rain = 0
KAMH 190720Z 33022G27KT 00/M02 A3011 RMK A01 T00011024  RH  084%=      5-min Rain = 0
KAMH 190725Z 33023G30KT 00/M03 A3011 RMK A01 T00011025  RH  083%=      5-min Rain = 0
KAMH 190730Z 33023G29KT 00/03 A3011 RMK A01 T00000-26  RH  083%=      5-min Rain = 0
KAMH 190735Z 33023KT M00/M03 A3011 RMK A01 T10011027  RH  083%=      5-min Rain = 0
KAMH 190740Z 33022G27KT M00/M03 A3012 RMK A01 T10011028  RH  083%=      5-min Rain = 0
KAMH 190745Z 33020KT M00/M03 A3012 RMK A01 T10021027  RH  083%=      5-min Rain = 0
KAMH 190750Z 33019G24KT M00/M03 A3012 RMK A01 T10021027  RH  084%=      5-min Rain = 0
KAMH 190755Z 33019G25KT M00/M03 A3013 RMK A01 T10021027  RH  084%=      5-min Rain = 0
KAMH 190800Z 33021G27KT M00/M03 A3013 RMK A01 T10011028  RH  082%=      5-min Rain = 0
KAMH 190805Z 33022G29KT 00/03 A3013 RMK A01 T00-00-29  RH  081%=      5-min Rain = 0
KAMH 190810Z 33022G28KT 00/03 A3014 RMK A01 T00-00-30  RH  081%=      5-min Rain = 0
KAMH 190815Z 33021G27KT 00/03 A3014 RMK A01 T00-00-31  RH  081%=      5-min Rain = 0
KAMH 190820Z 34019G25KT M00/M03 A3014 RMK A01 T10021031  RH  081%=      5-min Rain = 0
KAMH 190825Z 33019G24KT M00/M03 A3014 RMK A01 T10021031  RH  081%=      5-min Rain = 0
KAMH 190830Z 33017G23KT M00/M03 A3015 RMK A01 T10021031  RH  082%=      5-min Rain = 0
KAMH 190835Z 33017G22KT M00/M03 A3015 RMK A01 T10031030  RH  082%=      5-min Rain = 0
KAMH 190840Z 33017KT M00/M03 A3015 RMK A01 T10031030  RH  082%=      5-min Rain = 0
KAMH 190845Z 32016G22KT M00/M03 A3015 RMK A01 T10031031  RH  082%=      5-min Rain = 0
KAMH 190850Z 33018G25KT M00/M03 A3015 RMK A01 T10031031  RH  082%=      5-min Rain = 0
KAMH 190855Z 33018G26KT M00/M03 A3015 RMK A01 T10031032  RH  082%=      5-min Rain = 0
KAMH 190900Z 32016G21KT M01/M03 A3015 RMK A01 T10051031  RH  083%=      5-min Rain = 0
KAMH 190905Z 32013KT M01/M03 A3015 RMK A01 T10071030  RH  085%=      5-min Rain = 0
KAMH 190910Z 31012KT M01/M03 A3016 RMK A01 T10081030  RH  085%=      5-min Rain = 0
KAMH 190915Z 31012KT M01/M03 A3016 RMK A01 T10091030  RH  086%=      5-min Rain = 0
KAMH 190920Z 31012KT M01/M03 A3016 RMK A01 T10091031  RH  086%=      5-min Rain = 0
KAMH 190925Z 31011KT M01/M03 A3016 RMK A01 T10091031  RH  086%=      5-min Rain = 0
KAMH 190930Z 31009KT M01/M03 A3016 RMK A01 T10111032  RH  086%=      5-min Rain = 0
KAMH 190935Z 30009KT M01/M03 A3017 RMK A01 T10131032  RH  087%=      5-min Rain = 0
KAMH 190940Z 30010KT M01/M03 A3017 RMK A01 T10121032  RH  087%=      5-min Rain = 0
KAMH 190945Z 30010KT M01/M03 A3017 RMK A01 T10111031  RH  086%=      5-min Rain = 0
KAMH 190950Z 30009KT M01/M03 A3018 RMK A01 T10121032  RH  086%=      5-min Rain = 0
KAMH 190955Z 30010KT M01/M03 A3018 RMK A01 T10131033  RH  087%=      5-min Rain = 0
KAMH 191000Z 30010KT M01/M03 A3018 RMK A01 T10121032  RH  086%=      5-min Rain = 0
KAMH 191005Z 30009KT M01/M03 A3019 RMK A01 T10121033  RH  086%=      5-min Rain = 0
KAMH 191010Z 29008KT M02/M04 A3019 RMK A01 T10151035  RH  087%=      5-min Rain = 0
KAMH 191015Z 29007KT M02/M04 A3019 RMK A01 T10181036  RH  088%=      5-min Rain = 0
KAMH 191020Z 30008KT M02/M03 A3019 RMK A01 T10151034  RH  088%=      5-min Rain = 0
KAMH 191025Z 30007KT M02/M04 A3019 RMK A01 T10151035  RH  087%=      5-min Rain = 0
KAMH 191030Z 30008KT M01/M03 A3019 RMK A01 T10141034  RH  087%=      5-min Rain = 0
KAMH 191035Z 30008KT M01/M03 A3019 RMK A01 T10131034  RH  087%=      5-min Rain = 0
KAMH 191040Z 31008KT M01/M03 A3019 RMK A01 T10141034  RH  087%=      5-min Rain = 0
KAMH 191045Z 30009KT M01/M03 A3019 RMK A01 T10141034  RH  087%=      5-min Rain = 0
KAMH 191050Z 29010KT M02/M04 A3019 RMK A01 T10151035  RH  087%=      5-min Rain = 0
KAMH 191055Z 30010KT M02/M04 A3019 RMK A01 T10151035  RH  087%=      5-min Rain = 0
KAMH 191100Z 30009KT M02/M04 A3019 RMK A01 T10151035  RH  087%=      5-min Rain = 0
KAMH 191105Z 31009KT M01/M04 A3019 RMK A01 T10141035  RH  086%=      5-min Rain = 0
KAMH 191110Z 31009KT M01/M04 A3019 RMK A01 T10131035  RH  086%=      5-min Rain = 0
KAMH 191115Z 31010KT M01/M03 A3019 RMK A01 T10111034  RH  085%=      5-min Rain = 0
KAMH 191120Z 32011KT M01/M03 A3018 RMK A01 T10081033  RH  084%=      5-min Rain = 0
KAMH 191125Z 32013KT M01/M03 A3018 RMK A01 T10051032  RH  082%=      5-min Rain = 0
KAMH 191130Z 32013KT M00/M03 A3018 RMK A01 T10041032  RH  082%=      5-min Rain = 0
KAMH 191135Z 32013KT M01/M03 A3018 RMK A01 T10051032  RH  082%=      5-min Rain = 0
KAMH 191140Z 32013KT M01/M03 A3018 RMK A01 T10051032  RH  083%=      5-min Rain = 0
KAMH 191145Z 32012KT M01/M03 A3018 RMK A01 T10061032  RH  083%=      5-min Rain = 0
KAMH 191150Z 32012KT M01/M03 A3018 RMK A01 T10061033  RH  083%=      5-min Rain = 0
KAMH 191155Z 33012KT M01/M03 A3018 RMK A01 T10061033  RH  083%=      5-min Rain = 0
KAMH 191200Z 32012KT M01/M03 A3018 RMK A01 T10061033  RH  082%=      5-min Rain = 0
KAMH 191205Z 32011KT M01/M03 A3019 RMK A01 T10081033  RH  083%=      5-min Rain = 0
KAMH 191210Z 33010KT M01/M03 A3019 RMK A01 T10091034  RH  084%=      5-min Rain = 0
KAMH 191215Z 33011KT M01/M03 A3019 RMK A01 T10081033  RH  084%=      5-min Rain = 0
KAMH 191220Z 32012KT M01/M03 A302 RMK A01 T10061033  RH  083%=      5-min Rain = 0
KAMH 191225Z 32011KT M01/M03 A302 RMK A01 T10061034  RH  082%=      5-min Rain = 0
KAMH 191230Z 32011KT M01/M03 A302 RMK A01 T10061034  RH  082%=      5-min Rain = 0
KAMH 191235Z 32012KT M01/M03 A3021 RMK A01 T10061034  RH  081%=      5-min Rain = 0
KAMH 191240Z 31013G18KT M00/M03 A3021 RMK A01 T10041034  RH  081%=      5-min Rain = 0
KAMH 191245Z 31012KT M00/M04 A3022 RMK A01 T10041035  RH  080%=      5-min Rain = 0
KAMH 191250Z 31012KT M01/M04 A3022 RMK A01 T10061035  RH  081%=      5-min Rain = 0
KAMH 191255Z 31012KT M01/M04 A3022 RMK A01 T10061035  RH  081%=      5-min Rain = 0
KAMH 191300Z 31013KT M01/M04 A3022 RMK A01 T10061035  RH  081%=      5-min Rain = 0
KAMH 191305Z 31013KT M01/M04 A3023 RMK A01 T10061035  RH  081%=      5-min Rain = 0
KAMH 191310Z 31015KT M00/M04 A3023 RMK A01 T10041035  RH  080%=      5-min Rain = 0
KAMH 191315Z 31014KT M00/M04 A3023 RMK A01 T10031035  RH  079%=      5-min Rain = 0
KAMH 191320Z 31014G19KT M00/M04 A3023 RMK A01 T10031035  RH  080%=      5-min Rain = 0
KAMH 191325Z 31015KT M00/M04 A3023 RMK A01 T10041035  RH  080%=      5-min Rain = 0
KAMH 191330Z 31015KT M01/M04 A3024 RMK A01 T10051036  RH  080%=      5-min Rain = 0
KAMH 191335Z 31015KT M01/M04 A3024 RMK A01 T10051036  RH  080%=      5-min Rain = 0
KAMH 191340Z 31015KT M01/M04 A3024 RMK A01 T10061036  RH  080%=      5-min Rain = 0
KAMH 191345Z 32015KT M00/M04 A3024 RMK A01 T10031035  RH  079%=      5-min Rain = 0
KAMH 191350Z 32015KT M00/M04 A3024 RMK A01 T10021036  RH  078%=      5-min Rain = 0
KAMH 191355Z 31014KT M00/M04 A3025 RMK A01 T10021037  RH  078%=      5-min Rain = 0
KAMH 191400Z 31013KT M00/M04 A3025 RMK A01 T10041036  RH  079%=      5-min Rain = 0
KAMH 191405Z 30012KT M01/M04 A3025 RMK A01 T10051037  RH  080%=      5-min Rain = 0
KAMH 191410Z 31011KT M01/M04 A3025 RMK A01 T10071037  RH  081%=      5-min Rain = 0
KAMH 191415Z 31011KT M01/M04 A3026 RMK A01 T10071037  RH  081%=      5-min Rain = 0
KAMH 191420Z 31011KT M01/M04 A3026 RMK A01 T10061036  RH  081%=      5-min Rain = 0
KAMH 191425Z 31012KT M01/M04 A3026 RMK A01 T10051036  RH  080%=      5-min Rain = 0
KAMH 191430Z 31012KT M00/M04 A3027 RMK A01 T10031035  RH  080%=      5-min Rain = 0
KAMH 191435Z 31013KT M00/M03 A3027 RMK A01 T10011034  RH  079%=      5-min Rain = 0
KAMH 191440Z 31012KT 00/M03 A3027 RMK A01 T00011033  RH  078%=      5-min Rain = 0
KAMH 191445Z 31011KT 00/M03 A3027 RMK A01 T00031031  RH  078%=      5-min Rain = 0
KAMH 191450Z 31012KT 01/M03 A3028 RMK A01 T00061029  RH  078%=      5-min Rain = 0
KAMH 191455Z 31012KT 01/M03 A3028 RMK A01 T00081028  RH  077%=      5-min Rain = 0
KAMH 191500Z 31013KT 01/M03 A3028 RMK A01 T00111026  RH  077%=      5-min Rain = 0
KAMH 191505Z 31014KT 01/M03 A3029 RMK A01 T00141025  RH  076%=      5-min Rain = 0
KAMH 191510Z 30015KT 02/M03 A3029 RMK A01 T00161025  RH  075%=      5-min Rain = 0
KAMH 191515Z 31014KT 02/M02 A3029 RMK A01 T00181024  RH  074%=      5-min Rain = 0
KAMH 191520Z 31013KT 02/M02 A3029 RMK A01 T00201023  RH  074%=      5-min Rain = 0
KAMH 191525Z 32013KT 02/M02 A3029 RMK A01 T00231022  RH  073%=      5-min Rain = 0
KAMH 191530Z 32014KT 03/M02 A3029 RMK A01 T00261022  RH  071%=      5-min Rain = 0
KAMH 191535Z 32015KT 03/M02 A3029 RMK A01 T00291022  RH  070%=      5-min Rain = 0
KAMH 191540Z 32016KT 03/M02 A3029 RMK A01 T00321022  RH  068%=      5-min Rain = 0
KAMH 191545Z 33017G22KT 04/M02 A303 RMK A01 T00351021  RH  067%=      5-min Rain = 0
KAMH 191550Z 32016G22KT 04/M02 A303 RMK A01 T00381019  RH  067%=      5-min Rain = 0
KAMH 191555Z 33018G23KT 04/M02 A3029 RMK A01 T00391022  RH  065%=      5-min Rain = 0
KAMH 191600Z 32017KT 04/M02 A303 RMK A01 T00391020  RH  066%=      5-min Rain = 0
KAMH 191605Z 32017G26KT 04/M02 A303 RMK A01 T00401019  RH  066%=      5-min Rain = 0
KAMH 191610Z 33019KT 04/M02 A303 RMK A01 T00421020  RH  065%=      5-min Rain = 0
KAMH 191615Z 32019G24KT 04/M02 A303 RMK A01 T00431019  RH  065%=      5-min Rain = 0
KAMH 191620Z 33021G26KT 04/M02 A3031 RMK A01 T00441019  RH  064%=      5-min Rain = 0
KAMH 191625Z 33018KT 05/M02 A3031 RMK A01 T00451018  RH  064%=      5-min Rain = 0
KAMH 191630Z 33019KT 05/M02 A3031 RMK A01 T00451019  RH  064%=      5-min Rain = 0
KAMH 191635Z 34017G22KT 05/M02 A3031 RMK A01 T00471017  RH  064%=      5-min Rain = 0
KAMH 191640Z 33019KT 05/M02 A3031 RMK A01 T00481018  RH  063%=      5-min Rain = 0
KAMH 191645Z 33017KT 05/M01 A3031 RMK A01 T00511013  RH  064%=      5-min Rain = 0
KAMH 191650Z 33017G22KT 05/M02 A3031 RMK A01 T00511016  RH  062%=      5-min Rain = 0
KAMH 191655Z 34017KT 05/M02 A3031 RMK A01 T00521015  RH  062%=      5-min Rain = 0
KAMH 191700Z 34019G24KT 05/M02 A3032 RMK A01 T00541015  RH  062%=      5-min Rain = 0
KAMH 191705Z 34020KT 05/M02 A3032 RMK A01 T00531019  RH  060%=      5-min Rain = 0
KAMH 191710Z 34019KT 05/M02 A3032 RMK A01 T00541018  RH  060%=      5-min Rain = 0
KAMH 191715Z 34019KT 06/M02 A3032 RMK A01 T00571015  RH  060%=      5-min Rain = 0
KAMH 191720Z 34017KT 06/M01 A3032 RMK A01 T00591013  RH  060%=      5-min Rain = 0
KAMH 191725Z 34018G23KT 06/M01 A3032 RMK A01 T00601014  RH  060%=      5-min Rain = 0
KAMH 191730Z 34018KT 06/M01 A3032 RMK A01 T00611013  RH  060%=      5-min Rain = 0
KAMH 191735Z 34016KT 07/M01 A3032 RMK A01 T00651007  RH  060%=      5-min Rain = 0
KAMH 191740Z 35017KT 07/M01 A3032 RMK A01 T00651010  RH  059%=      5-min Rain = 0
KAMH 191745Z 34018KT 06/M01 A3032 RMK A01 T00641013  RH  058%=      5-min Rain = 0
KAMH 191750Z 35017KT 07/M01 A3032 RMK A01 T00661010  RH  059%=      5-min Rain = 0
KAMH 191755Z 34018G23KT 07/M01 A3032 RMK A01 T00671012  RH  058%=      5-min Rain = 0
KAMH 191800Z 34017KT 07/M01 A3031 RMK A01 T00691011  RH  057%=      5-min Rain = 0
KAMH 191805Z 34018KT 07/M01 A3032 RMK A01 T00701012  RH  057%=      5-min Rain = 0
KAMH 191810Z 35016G21KT 07/M01 A3032 RMK A01 T00731009  RH  056%=      5-min Rain = 0
KAMH 191815Z 34017G22KT 07/M01 A3032 RMK A01 T00721011  RH  056%=      5-min Rain = 0
KAMH 191820Z 35018KT 07/M01 A3032 RMK A01 T00731012  RH  055%=      5-min Rain = 0
KAMH 191825Z 35017KT 08/M01 A3031 RMK A01 T00751011  RH  055%=      5-min Rain = 0
KAMH 191830Z 35016KT 08/M01 A3031 RMK A01 T00751012  RH  054%=      5-min Rain = 0
KAMH 191835Z 34016KT 08/M01 A3031 RMK A01 T00771012  RH  054%=      5-min Rain = 0
KAMH 191840Z 35016KT 08/M01 A3031 RMK A01 T00791011  RH  054%=      5-min Rain = 0
KAMH 191845Z 35017KT 08/M01 A3031 RMK A01 T00781012  RH  053%=      5-min Rain = 0
KAMH 191850Z 34017KT 08/M01 A303 RMK A01 T00791014  RH  052%=      5-min Rain = 0
KAMH 191855Z 34015KT 08/M01 A303 RMK A01 T00801013  RH  052%=      5-min Rain = 0
KAMH 191900Z 34016KT 08/M01 A303 RMK A01 T00821012  RH  052%=      5-min Rain = 0
KAMH 191905Z 34015KT 08/M01 A303 RMK A01 T00831013  RH  051%=      5-min Rain = 0
KAMH 191910Z 34015G20KT 08/M01 A303 RMK A01 T00841012  RH  052%=      5-min Rain = 0
KAMH 191915Z 35014G19KT 08/M01 A3029 RMK A01 T00821012  RH  052%=      5-min Rain = 0
KAMH 191920Z 34013KT 09/M01 A3029 RMK A01 T00861010  RH  051%=      5-min Rain = 0
KAMH 191925Z 34013G18KT 09/M01 A3029 RMK A01 T00871012  RH  050%=      5-min Rain = 0
KAMH 191930Z 35013KT 09/M01 A3029 RMK A01 T00851013  RH  051%=      5-min Rain = 0
KAMH 191935Z 34012G17KT 09/M01 A3029 RMK A01 T00861013  RH  050%=      5-min Rain = 0
KAMH 191940Z 34012KT 09/M02 A3029 RMK A01 T00881015  RH  049%=      5-min Rain = 0
KAMH 191945Z 34012KT 09/M01 A3029 RMK A01 T00891013  RH  049%=      5-min Rain = 0
KAMH 191950Z 33011G16KT 09/M01 A3029 RMK A01 T00921012  RH  049%=      5-min Rain = 0
KAMH 191955Z 32009G14KT 09/M02 A3029 RMK A01 T00901018  RH  047%=      5-min Rain = 0
KAMH 192000Z 33012G17KT 09/M02 A3029 RMK A01 T00921016  RH  047%=      5-min Rain = 0
KAMH 192005Z 33011G16KT 09/M02 A3028 RMK A01 T00901017  RH  047%=      5-min Rain = 0
KAMH 192010Z 33011G16KT 09/M02 A3028 RMK A01 T00891019  RH  047%=      5-min Rain = 0
KAMH 192015Z 33010G16KT 09/M02 A3027 RMK A01 T00921016  RH  047%=      5-min Rain = 0
KAMH 192020Z 32010KT 09/M02 A3027 RMK A01 T00931018  RH  046%=      5-min Rain = 0
KAMH 192025Z 32010G16KT 10/M01 A3027 RMK A01 T00951014  RH  047%=      5-min Rain = 0
KAMH 192030Z 33011KT 09/M02 A3027 RMK A01 T00941016  RH  046%=      5-min Rain = 0
KAMH 192035Z 33011G18KT 09/M02 A3026 RMK A01 T00941016  RH  047%=      5-min Rain = 0
KAMH 192040Z 31010G15KT 09/M02 A3026 RMK A01 T00941016  RH  047%=      5-min Rain = 0
KAMH 192045Z 32007G12KT 09/M02 A3026 RMK A01 T00921017  RH  047%=      5-min Rain = 0
KAMH 192050Z 35010KT 10/M01 A3026 RMK A01 T00951013  RH  047%=      5-min Rain = 0
KAMH 192055Z 34012KT 10/M02 A3026 RMK A01 T00981015  RH  046%=      5-min Rain = 0
KAMH 192100Z 33009KT 10/M02 A3026 RMK A01 T00971018  RH  045%=      5-min Rain = 0
KAMH 192105Z 33007KT 10/M02 A3026 RMK A01 T00951018  RH  046%=      5-min Rain = 0
KAMH 192110Z 33009G14KT 10/M02 A3026 RMK A01 T00991017  RH  045%=      5-min Rain = 0
KAMH 192115Z 33010KT 10/M02 A3026 RMK A01 T00991017  RH  045%=      5-min Rain = 0
KAMH 192120Z 34008KT 10/M02 A3026 RMK A01 T00991017  RH  045%=      5-min Rain = 0
KAMH 192125Z 33007KT 10/M02 A3026 RMK A01 T00981019  RH  044%=      5-min Rain = 0
KAMH 192130Z 32008KT 10/M02 A3026 RMK A01 T00991020  RH  044%=      5-min Rain = 0
KAMH 192135Z 33006KT 10/M02 A3026 RMK A01 T01011018  RH  044%=      5-min Rain = 0
KAMH 192140Z 33007KT 10/M02 A3026 RMK A01 T00991019  RH  044%=      5-min Rain = 0
KAMH 192145Z 34008KT 10/M02 A3026 RMK A01 T01011018  RH  044%=      5-min Rain = 0
KAMH 192150Z 34009KT 10/M02 A3026 RMK A01 T01001019  RH  044%=      5-min Rain = 0
KAMH 192155Z 34005G10KT 10/M02 A3026 RMK A01 T00981021  RH  044%=      5-min Rain = 0
KAMH 192200Z 35004KT 10/M02 A3025 RMK A01 T00991017  RH  045%=      5-min Rain = 0
KAMH 192205Z 01005KT 10/M02 A3025 RMK A01 T00991017  RH  045%=      5-min Rain = 0
KAMH 192210Z 01004KT 10/M02 A3025 RMK A01 T00991018  RH  044%=      5-min Rain = 0
KAMH 192215Z 35005KT 10/M02 A3025 RMK A01 T01031016  RH  044%=      5-min Rain = 0
KAMH 192220Z 34007KT 10/M02 A3025 RMK A01 T01011019  RH  043%=      5-min Rain = 0
KAMH 192225Z 33006KT 10/M02 A3025 RMK A01 T01021019  RH  043%=      5-min Rain = 0
KAMH 192230Z 30005KT 10/M02 A3025 RMK A01 T01031020  RH  043%=      5-min Rain = 0
KAMH 192235Z 30002KT 10/M03 A3025 RMK A01 T01031025  RH  041%=      5-min Rain = 0
KAMH 192240Z 00004KT 10/M02 A3025 RMK A01 T01021022  RH  042%=      5-min Rain = 0
KAMH 192245Z 36006KT 10/M02 A3025 RMK A01 T01011020  RH  043%=      5-min Rain = 0
KAMH 192250Z 02005KT 10/M02 A3025 RMK A01 T01001020  RH  043%=      5-min Rain = 0
KAMH 192255Z 01005KT 10/M02 A3025 RMK A01 T00991020  RH  044%=      5-min Rain = 0
KAMH 192300Z 02004KT 10/M02 A3025 RMK A01 T00981020  RH  044%=      5-min Rain = 0
KAMH 192305Z 00004KT 10/M02 A3025 RMK A01 T00991020  RH  044%=      5-min Rain = 0
KAMH 192310Z 00004KT 10/M02 A3024 RMK A01 T00981020  RH  044%=      5-min Rain = 0
KAMH 192315Z 01003KT 10/M02 A3024 RMK A01 T00981021  RH  044%=      5-min Rain = 0
KAMH 192320Z 03003KT 10/M02 A3024 RMK A01 T00981020  RH  044%=      5-min Rain = 0
KAMH 192325Z 02005KT 10/M02 A3025 RMK A01 T00961019  RH  045%=      5-min Rain = 0
KAMH 192330Z 02004KT 09/M02 A3025 RMK A01 T00931019  RH  046%=      5-min Rain = 0
KAMH 192335Z 03004KT 09/M02 A3025 RMK A01 T00911017  RH  047%=      5-min Rain = 0
KAMH 192340Z 04004KT 09/M02 A3025 RMK A01 T00881017  RH  048%=      5-min Rain = 0
KAMH 192345Z 05004KT 08/M02 A3025 RMK A01 T00841016  RH  050%=      5-min Rain = 0
KAMH 192350Z 06005KT 08/M02 A3025 RMK A01 T00781019  RH  051%=      5-min Rain = 0
KAMH 192355Z 06005KT 07/M02 A3025 RMK A01 T00711018  RH  054%=      5-min Rain = 0
KAMH 200000Z 05005KT 07/M02 A3025 RMK A01 T00671017  RH  055%=      5-min Rain = 0
KAMH 200005Z 04006KT 07/M02 A3025 RMK A01 T00661016  RH  056%=      5-min Rain = 0
KAMH 200010Z 05006KT 07/M02 A3024 RMK A01 T00651016  RH  056%=      5-min Rain = 0
KAMH 200015Z 05006KT 06/M02 A3024 RMK A01 T00631018  RH  057%=      5-min Rain = 0
KAMH 200020Z 06004KT 06/M02 A3024 RMK A01 T00581020  RH  058%=      5-min Rain = 0
KAMH 200025Z 10004KT 05/M02 A3025 RMK A01 T00471022  RH  062%=      5-min Rain = 0
KAMH 200030Z 09003KT 04/M02 A3025 RMK A01 T00441021  RH  063%=      5-min Rain = 0
KAMH 200035Z 07004KT 04/M02 A3025 RMK A01 T00441021  RH  063%=      5-min Rain = 0
KAMH 200040Z 07004KT 04/M02 A3025 RMK A01 T00431023  RH  063%=      5-min Rain = 0
KAMH 200045Z 07004KT 04/M02 A3025 RMK A01 T00431021  RH  064%=      5-min Rain = 0
KAMH 200050Z 07005KT 04/M02 A3025 RMK A01 T00421022  RH  064%=      5-min Rain = 0
KAMH 200055Z 08005KT 04/M02 A3025 RMK A01 T00371024  RH  065%=      5-min Rain = 0
KAMH 200100Z 09004KT 03/M03 A3025 RMK A01 T00331025  RH  066%=      5-min Rain = 0
KAMH 200105Z 07004KT 03/M02 A3025 RMK A01 T00331024  RH  067%=      5-min Rain = 0
KAMH 200110Z 07004KT 03/M02 A3025 RMK A01 T00341023  RH  066%=      5-min Rain = 0
KAMH 200115Z 09004KT 03/M02 A3025 RMK A01 T00341024  RH  066%=      5-min Rain = 0
KAMH 200120Z 10004KT 03/M03 A3024 RMK A01 T00331025  RH  066%=      5-min Rain = 0
KAMH 200125Z 10004KT 03/M03 A3024 RMK A01 T00311026  RH  067%=      5-min Rain = 0
KAMH 200130Z 09005KT 03/M03 A3024 RMK A01 T00271028  RH  068%=      5-min Rain = 0
KAMH 200135Z 09006KT 02/M03 A3023 RMK A01 T00231030  RH  069%=      5-min Rain = 0
KAMH 200140Z 10006KT 02/M03 A3023 RMK A01 T00191031  RH  070%=      5-min Rain = 0
KAMH 200145Z 10006KT 02/M03 A3024 RMK A01 T00201029  RH  070%=      5-min Rain = 0
KAMH 200150Z 10005KT 02/M03 A3024 RMK A01 T00211028  RH  070%=      5-min Rain = 0
KAMH 200155Z 10005KT 02/M03 A3024 RMK A01 T00211029  RH  070%=      5-min Rain = 0
KAMH 200200Z 11004KT 02/M03 A3024 RMK A01 T00201028  RH  071%=      5-min Rain = 0
KAMH 200205Z 10003KT 02/M03 A3025 RMK A01 T00221025  RH  071%=      5-min Rain = 0
KAMH 200210Z 11004KT 03/M02 A3026 RMK A01 T00271024  RH  070%=      5-min Rain = 0
KAMH 200215Z 12003KT 02/M03 A3026 RMK A01 T00211027  RH  071%=      5-min Rain = 0
KAMH 200220Z 11003KT 02/M03 A3026 RMK A01 T00171028  RH  072%=      5-min Rain = 0
KAMH 200225Z 11003KT 02/M03 A3027 RMK A01 T00171028  RH  072%=      5-min Rain = 0
KAMH 200230Z 12003KT 02/M03 A3027 RMK A01 T00191028  RH  071%=      5-min Rain = 0
KAMH 200235Z 13004KT 02/M03 A3026 RMK A01 T00161032  RH  071%=      5-min Rain = 0
KAMH 200240Z 13004KT 02/M03 A3026 RMK A01 T00151031  RH  072%=      5-min Rain = 0
KAMH 200245Z 13004KT 02/M03 A3026 RMK A01 T00151032  RH  072%=      5-min Rain = 0
KAMH 200250Z 14003KT 01/M03 A3026 RMK A01 T00141033  RH  071%=      5-min Rain = 0
KAMH 200255Z 14003KT 01/M03 A3026 RMK A01 T00121032  RH  073%=      5-min Rain = 0
KAMH 200300Z 12003KT 01/M03 A3026 RMK A01 T00121032  RH  073%=      5-min Rain = 0
KAMH 200305Z 12003KT 01/M04 A3025 RMK A01 T00071036  RH  074%=      5-min Rain = 0
KAMH 200310Z 13004KT 00/M04 A3025 RMK A01 T00041035  RH  076%=      5-min Rain = 0
KAMH 200315Z 12004KT 01/M03 A3025 RMK A01 T00051034  RH  075%=      5-min Rain = 0
KAMH 200320Z 13005KT 01/M04 A3025 RMK A01 T00051036  RH  075%=      5-min Rain = 0
KAMH 200325Z 14006KT 00/04 A3025 RMK A01 T00-00-38  RH  076%=      5-min Rain = 0
KAMH 200330Z 14007KT M00/M04 A3025 RMK A01 T10021037  RH  078%=      5-min Rain = 0
KAMH 200335Z 13006KT M00/M04 A3025 RMK A01 T10021037  RH  078%=      5-min Rain = 0
KAMH 200340Z 14005KT M00/M04 A3025 RMK A01 T10041039  RH  078%=      5-min Rain = 0
KAMH 200345Z 15004KT M01/M04 A3026 RMK A01 T10051038  RH  079%=      5-min Rain = 0
KAMH 200350Z 16006KT M00/M04 A3025 RMK A01 T10041037  RH  079%=      5-min Rain = 0
KAMH 200355Z 16006KT M01/M04 A3025 RMK A01 T10061038  RH  080%=      5-min Rain = 0
KAMH 200400Z 17006KT M01/M04 A3026 RMK A01 T10051037  RH  079%=      5-min Rain = 0
KAMH 200405Z 17005KT M00/M04 A3026 RMK A01 T10041037  RH  079%=      5-min Rain = 0
KAMH 200410Z 17005KT M00/M04 A3025 RMK A01 T10041037  RH  079%=      5-min Rain = 0
KAMH 200415Z 18005KT M00/M04 A3025 RMK A01 T10031038  RH  078%=      5-min Rain = 0
KAMH 200420Z 18005KT M00/M04 A3025 RMK A01 T10031037  RH  078%=      5-min Rain = 0
KAMH 200425Z 18006KT M00/M04 A3025 RMK A01 T10041039  RH  078%=      5-min Rain = 0
KAMH 200430Z 17006KT M01/M04 A3025 RMK A01 T10051039  RH  078%=      5-min Rain = 0
KAMH 200435Z 18007KT M01/M04 A3025 RMK A01 T10051039  RH  078%=      5-min Rain = 0
KAMH 200440Z 18007KT M01/M04 A3025 RMK A01 T10051039  RH  078%=      5-min Rain = 0
KAMH 200445Z 18007KT M01/M04 A3026 RMK A01 T10051039  RH  078%=      5-min Rain = 0
KAMH 200450Z 17006KT M01/M04 A3026 RMK A01 T10071041  RH  078%=      5-min Rain = 0
KAMH 200455Z 17006KT M01/M05 A3025 RMK A01 T10131045  RH  079%=      5-min Rain = 0
KAMH 200500Z 16006KT M02/M05 A3025 RMK A01 T10161046  RH  081%=      5-min Rain = 0
KAMH 200505Z 17006KT M02/M05 A3025 RMK A01 T10181046  RH  081%=      5-min Rain = 0
KAMH 200510Z 18007KT M02/M04 A3026 RMK A01 T10151043  RH  082%=      5-min Rain = 0
KAMH 200515Z 18007KT M01/M04 A3026 RMK A01 T10101040  RH  080%=      5-min Rain = 0
KAMH 200520Z 18007KT M01/M04 A3026 RMK A01 T10101041  RH  079%=      5-min Rain = 0
KAMH 200525Z 18008KT M01/M04 A3026 RMK A01 T10071040  RH  079%=      5-min Rain = 0
KAMH 200530Z 19007KT M01/M04 A3026 RMK A01 T10051040  RH  078%=      5-min Rain = 0
KAMH 200535Z 19007KT M01/M04 A3027 RMK A01 T10051040  RH  077%=      5-min Rain = 0
KAMH 200540Z 19007KT M00/M04 A3027 RMK A01 T10041041  RH  077%=      5-min Rain = 0
KAMH 200545Z 19008KT M00/M04 A3027 RMK A01 T10031041  RH  076%=      5-min Rain = 0
KAMH 200550Z 19008KT M00/M04 A3027 RMK A01 T10021041  RH  076%=      5-min Rain = 0
KAMH 200555Z 18009KT M00/M04 A3026 RMK A01 T10011041  RH  075%=      5-min Rain = 0

Page generated in 0.0093 seconds.